sensor_id;sensor_type;location;lat;lon;timestamp;temperature;humidity
74364;DHT22;62797;49.740;10.154;2023-12-14T00:00:28;4.80;83.60
74364;DHT22;62797;49.740;10.154;2023-12-14T00:02:54;4.70;83.80
74364;DHT22;62797;49.740;10.154;2023-12-14T00:05:20;4.70;84.00
74364;DHT22;62797;49.740;10.154;2023-12-14T00:07:46;4.70;84.00
74364;DHT22;62797;49.740;10.154;2023-12-14T00:10:11;4.60;84.10
74364;DHT22;62797;49.740;10.154;2023-12-14T00:12:38;4.60;84.70
74364;DHT22;62797;49.740;10.154;2023-12-14T00:15:04;4.60;84.70
74364;DHT22;62797;49.740;10.154;2023-12-14T00:17:30;4.60;84.70
74364;DHT22;62797;49.740;10.154;2023-12-14T00:19:55;4.50;84.80
74364;DHT22;62797;49.740;10.154;2023-12-14T00:22:21;4.50;84.90
74364;DHT22;62797;49.740;10.154;2023-12-14T00:24:46;4.50;85.00
74364;DHT22;62797;49.740;10.154;2023-12-14T00:27:12;4.60;85.00
74364;DHT22;62797;49.740;10.154;2023-12-14T00:29:38;4.50;84.90
74364;DHT22;62797;49.740;10.154;2023-12-14T00:32:04;4.50;85.40
74364;DHT22;62797;49.740;10.154;2023-12-14T00:34:30;4.60;85.50
74364;DHT22;62797;49.740;10.154;2023-12-14T00:36:55;4.60;85.20
74364;DHT22;62797;49.740;10.154;2023-12-14T00:39:21;4.70;85.00
74364;DHT22;62797;49.740;10.154;2023-12-14T00:41:47;4.70;84.70
74364;DHT22;62797;49.740;10.154;2023-12-14T00:44:12;4.60;84.70
74364;DHT22;62797;49.740;10.154;2023-12-14T00:46:38;4.60;83.70
74364;DHT22;62797;49.740;10.154;2023-12-14T00:49:04;4.40;83.90
74364;DHT22;62797;49.740;10.154;2023-12-14T00:51:29;4.30;84.20
74364;DHT22;62797;49.740;10.154;2023-12-14T00:53:55;4.20;84.10
74364;DHT22;62797;49.740;10.154;2023-12-14T00:56:21;4.10;84.00
74364;DHT22;62797;49.740;10.154;2023-12-14T00:58:46;4.00;84.30
74364;DHT22;62797;49.740;10.154;2023-12-14T01:01:12;4.00;84.40
74364;DHT22;62797;49.740;10.154;2023-12-14T01:03:37;3.90;84.60
74364;DHT22;62797;49.740;10.154;2023-12-14T01:06:03;3.90;84.60
74364;DHT22;62797;49.740;10.154;2023-12-14T01:08:29;3.90;84.60
74364;DHT22;62797;49.740;10.154;2023-12-14T01:10:54;3.80;84.50
74364;DHT22;62797;49.740;10.154;2023-12-14T01:13:20;3.80;84.30
74364;DHT22;62797;49.740;10.154;2023-12-14T01:15:46;3.80;84.60
74364;DHT22;62797;49.740;10.154;2023-12-14T01:18:11;3.70;84.50
74364;DHT22;62797;49.740;10.154;2023-12-14T01:20:38;3.70;85.00
74364;DHT22;62797;49.740;10.154;2023-12-14T01:23:04;3.70;84.70
74364;DHT22;62797;49.740;10.154;2023-12-14T01:25:29;3.70;85.00
74364;DHT22;62797;49.740;10.154;2023-12-14T01:27:55;3.60;83.80
74364;DHT22;62797;49.740;10.154;2023-12-14T01:30:21;3.50;84.10
74364;DHT22;62797;49.740;10.154;2023-12-14T01:32:46;3.50;84.10
74364;DHT22;62797;49.740;10.154;2023-12-14T01:35:13;3.50;84.70
74364;DHT22;62797;49.740;10.154;2023-12-14T01:37:38;3.40;83.70
74364;DHT22;62797;49.740;10.154;2023-12-14T01:40:05;3.30;83.70
74364;DHT22;62797;49.740;10.154;2023-12-14T01:42:31;3.20;83.50
74364;DHT22;62797;49.740;10.154;2023-12-14T01:44:57;3.20;84.30
74364;DHT22;62797;49.740;10.154;2023-12-14T01:47:22;3.10;85.10
74364;DHT22;62797;49.740;10.154;2023-12-14T01:49:48;3.10;84.50
74364;DHT22;62797;49.740;10.154;2023-12-14T01:52:14;3.10;84.70
74364;DHT22;62797;49.740;10.154;2023-12-14T01:54:40;3.10;84.70
74364;DHT22;62797;49.740;10.154;2023-12-14T01:57:05;3.10;84.30
74364;DHT22;62797;49.740;10.154;2023-12-14T01:59:31;3.00;84.10
74364;DHT22;62797;49.740;10.154;2023-12-14T02:01:57;3.00;84.00
74364;DHT22;62797;49.740;10.154;2023-12-14T02:04:24;2.90;84.40
74364;DHT22;62797;49.740;10.154;2023-12-14T02:06:51;2.90;84.00
74364;DHT22;62797;49.740;10.154;2023-12-14T02:09:17;2.80;84.20
74364;DHT22;62797;49.740;10.154;2023-12-14T02:11:42;2.80;84.20
74364;DHT22;62797;49.740;10.154;2023-12-14T02:14:09;2.90;84.10
74364;DHT22;62797;49.740;10.154;2023-12-14T02:16:35;2.90;84.50
74364;DHT22;62797;49.740;10.154;2023-12-14T02:19:04;2.90;83.90
74364;DHT22;62797;49.740;10.154;2023-12-14T02:21:30;2.90;83.80
74364;DHT22;62797;49.740;10.154;2023-12-14T02:23:55;2.90;83.10
74364;DHT22;62797;49.740;10.154;2023-12-14T02:26:21;2.80;83.60
74364;DHT22;62797;49.740;10.154;2023-12-14T02:28:47;2.80;83.90
74364;DHT22;62797;49.740;10.154;2023-12-14T02:31:12;2.70;83.90
74364;DHT22;62797;49.740;10.154;2023-12-14T02:33:38;2.70;83.60
74364;DHT22;62797;49.740;10.154;2023-12-14T02:36:04;2.70;83.60
74364;DHT22;62797;49.740;10.154;2023-12-14T02:38:30;2.70;84.00
74364;DHT22;62797;49.740;10.154;2023-12-14T02:40:55;2.70;84.20
74364;DHT22;62797;49.740;10.154;2023-12-14T02:43:21;2.70;84.40
74364;DHT22;62797;49.740;10.154;2023-12-14T02:45:51;2.70;84.70
74364;DHT22;62797;49.740;10.154;2023-12-14T02:48:17;2.80;84.90
74364;DHT22;62797;49.740;10.154;2023-12-14T02:50:42;2.90;85.20
74364;DHT22;62797;49.740;10.154;2023-12-14T02:53:08;3.00;85.10
74364;DHT22;62797;49.740;10.154;2023-12-14T02:55:34;3.00;84.40
74364;DHT22;62797;49.740;10.154;2023-12-14T02:57:59;3.10;84.30
74364;DHT22;62797;49.740;10.154;2023-12-14T03:00:25;3.10;83.80
74364;DHT22;62797;49.740;10.154;2023-12-14T03:02:51;3.10;83.40
74364;DHT22;62797;49.740;10.154;2023-12-14T03:05:17;3.10;83.60
74364;DHT22;62797;49.740;10.154;2023-12-14T03:07:45;3.20;83.90
74364;DHT22;62797;49.740;10.154;2023-12-14T03:10:10;3.20;83.60
74364;DHT22;62797;49.740;10.154;2023-12-14T03:12:36;3.30;83.60
74364;DHT22;62797;49.740;10.154;2023-12-14T03:15:02;3.30;83.20
74364;DHT22;62797;49.740;10.154;2023-12-14T03:17:27;3.30;83.40
74364;DHT22;62797;49.740;10.154;2023-12-14T03:19:53;3.40;83.70
74364;DHT22;62797;49.740;10.154;2023-12-14T03:22:19;3.30;83.30
74364;DHT22;62797;49.740;10.154;2023-12-14T03:24:44;3.30;83.70
74364;DHT22;62797;49.740;10.154;2023-12-14T03:27:10;3.30;83.50
74364;DHT22;62797;49.740;10.154;2023-12-14T03:29:35;3.30;83.50
74364;DHT22;62797;49.740;10.154;2023-12-14T03:32:01;3.30;83.70
74364;DHT22;62797;49.740;10.154;2023-12-14T03:34:27;3.40;83.80
74364;DHT22;62797;49.740;10.154;2023-12-14T03:36:52;3.30;84.10
74364;DHT22;62797;49.740;10.154;2023-12-14T03:39:18;3.40;84.10
74364;DHT22;62797;49.740;10.154;2023-12-14T03:41:44;3.50;84.10
74364;DHT22;62797;49.740;10.154;2023-12-14T03:44:10;3.50;84.10
74364;DHT22;62797;49.740;10.154;2023-12-14T03:46:36;3.50;83.80
74364;DHT22;62797;49.740;10.154;2023-12-14T03:49:02;3.50;83.50
74364;DHT22;62797;49.740;10.154;2023-12-14T03:51:28;3.60;83.70
74364;DHT22;62797;49.740;10.154;2023-12-14T03:53:54;3.60;84.40
74364;DHT22;62797;49.740;10.154;2023-12-14T03:56:19;3.60;84.40
74364;DHT22;62797;49.740;10.154;2023-12-14T03:58:45;3.70;84.60
74364;DHT22;62797;49.740;10.154;2023-12-14T04:01:20;3.80;84.60
74364;DHT22;62797;49.740;10.154;2023-12-14T04:03:46;3.80;84.60
74364;DHT22;62797;49.740;10.154;2023-12-14T04:06:12;3.80;84.70
74364;DHT22;62797;49.740;10.154;2023-12-14T04:08:39;3.80;84.60
74364;DHT22;62797;49.740;10.154;2023-12-14T04:11:04;3.80;84.30
74364;DHT22;62797;49.740;10.154;2023-12-14T04:13:30;3.70;84.20
74364;DHT22;62797;49.740;10.154;2023-12-14T04:15:56;3.80;84.30
74364;DHT22;62797;49.740;10.154;2023-12-14T04:18:23;3.70;84.00
74364;DHT22;62797;49.740;10.154;2023-12-14T04:20:48;3.60;83.70
74364;DHT22;62797;49.740;10.154;2023-12-14T04:23:14;3.60;83.30
74364;DHT22;62797;49.740;10.154;2023-12-14T04:25:40;3.60;83.90
74364;DHT22;62797;49.740;10.154;2023-12-14T04:28:05;3.60;84.00
74364;DHT22;62797;49.740;10.154;2023-12-14T04:30:31;3.50;83.90
74364;DHT22;62797;49.740;10.154;2023-12-14T04:32:56;3.50;84.10
74364;DHT22;62797;49.740;10.154;2023-12-14T04:35:22;3.40;84.30
74364;DHT22;62797;49.740;10.154;2023-12-14T04:37:48;3.40;83.70
74364;DHT22;62797;49.740;10.154;2023-12-14T04:40:14;3.30;83.90
74364;DHT22;62797;49.740;10.154;2023-12-14T04:42:39;3.20;83.70
74364;DHT22;62797;49.740;10.154;2023-12-14T04:45:14;3.10;83.40
74364;DHT22;62797;49.740;10.154;2023-12-14T04:47:42;3.10;83.50
74364;DHT22;62797;49.740;10.154;2023-12-14T04:50:08;3.10;83.50
74364;DHT22;62797;49.740;10.154;2023-12-14T04:52:34;3.00;83.70
74364;DHT22;62797;49.740;10.154;2023-12-14T04:55:00;3.00;84.30
74364;DHT22;62797;49.740;10.154;2023-12-14T04:57:26;3.00;84.30
74364;DHT22;62797;49.740;10.154;2023-12-14T04:59:51;3.00;84.40
74364;DHT22;62797;49.740;10.154;2023-12-14T05:02:17;3.00;84.20
74364;DHT22;62797;49.740;10.154;2023-12-14T05:04:43;3.00;84.40
74364;DHT22;62797;49.740;10.154;2023-12-14T05:07:08;3.10;84.40
74364;DHT22;62797;49.740;10.154;2023-12-14T05:09:34;3.00;84.30
74364;DHT22;62797;49.740;10.154;2023-12-14T05:12:00;3.00;84.50
74364;DHT22;62797;49.740;10.154;2023-12-14T05:14:28;3.10;84.40
74364;DHT22;62797;49.740;10.154;2023-12-14T05:16:54;3.10;84.60
74364;DHT22;62797;49.740;10.154;2023-12-14T05:19:20;3.10;84.80
74364;DHT22;62797;49.740;10.154;2023-12-14T05:21:46;3.20;84.40
74364;DHT22;62797;49.740;10.154;2023-12-14T05:24:11;3.20;84.40
74364;DHT22;62797;49.740;10.154;2023-12-14T05:26:37;3.30;84.40
74364;DHT22;62797;49.740;10.154;2023-12-14T05:29:03;3.30;84.20
74364;DHT22;62797;49.740;10.154;2023-12-14T05:31:29;3.40;84.00
74364;DHT22;62797;49.740;10.154;2023-12-14T05:33:54;3.40;83.70
74364;DHT22;62797;49.740;10.154;2023-12-14T05:36:20;3.40;83.60
74364;DHT22;62797;49.740;10.154;2023-12-14T05:38:46;3.40;84.00
74364;DHT22;62797;49.740;10.154;2023-12-14T05:41:12;3.40;83.60
74364;DHT22;62797;49.740;10.154;2023-12-14T05:43:38;3.50;84.10
74364;DHT22;62797;49.740;10.154;2023-12-14T05:46:03;3.50;83.90
74364;DHT22;62797;49.740;10.154;2023-12-14T05:48:29;3.50;84.20
74364;DHT22;62797;49.740;10.154;2023-12-14T05:50:56;3.50;84.30
74364;DHT22;62797;49.740;10.154;2023-12-14T05:53:22;3.60;84.00
74364;DHT22;62797;49.740;10.154;2023-12-14T05:55:48;3.60;84.00
74364;DHT22;62797;49.740;10.154;2023-12-14T05:58:14;3.60;83.90
74364;DHT22;62797;49.740;10.154;2023-12-14T06:00:40;3.60;83.70
74364;DHT22;62797;49.740;10.154;2023-12-14T06:03:06;3.70;84.10
74364;DHT22;62797;49.740;10.154;2023-12-14T06:05:33;3.70;84.00
74364;DHT22;62797;49.740;10.154;2023-12-14T06:07:59;3.70;83.50
74364;DHT22;62797;49.740;10.154;2023-12-14T06:10:24;3.60;83.70
74364;DHT22;62797;49.740;10.154;2023-12-14T06:12:50;3.70;83.70
74364;DHT22;62797;49.740;10.154;2023-12-14T06:15:16;3.70;83.80
74364;DHT22;62797;49.740;10.154;2023-12-14T06:17:41;3.70;84.20
74364;DHT22;62797;49.740;10.154;2023-12-14T06:20:08;3.80;84.40
74364;DHT22;62797;49.740;10.154;2023-12-14T06:22:36;3.80;84.60
74364;DHT22;62797;49.740;10.154;2023-12-14T06:25:02;3.90;84.90
74364;DHT22;62797;49.740;10.154;2023-12-14T06:27:28;4.00;84.60
74364;DHT22;62797;49.740;10.154;2023-12-14T06:29:54;4.00;84.60
74364;DHT22;62797;49.740;10.154;2023-12-14T06:32:20;4.00;84.60
74364;DHT22;62797;49.740;10.154;2023-12-14T06:34:46;4.10;84.60
74364;DHT22;62797;49.740;10.154;2023-12-14T06:37:12;4.10;84.40
74364;DHT22;62797;49.740;10.154;2023-12-14T06:39:37;4.10;84.60
74364;DHT22;62797;49.740;10.154;2023-12-14T06:42:06;4.20;84.60
74364;DHT22;62797;49.740;10.154;2023-12-14T06:44:32;4.20;84.70
74364;DHT22;62797;49.740;10.154;2023-12-14T06:46:58;4.20;84.50
74364;DHT22;62797;49.740;10.154;2023-12-14T06:49:24;4.20;83.60
74364;DHT22;62797;49.740;10.154;2023-12-14T06:51:50;4.10;83.60
74364;DHT22;62797;49.740;10.154;2023-12-14T06:54:16;4.00;84.10
74364;DHT22;62797;49.740;10.154;2023-12-14T06:56:41;4.00;84.40
74364;DHT22;62797;49.740;10.154;2023-12-14T06:59:07;4.00;84.50
74364;DHT22;62797;49.740;10.154;2023-12-14T07:01:32;4.10;84.60
74364;DHT22;62797;49.740;10.154;2023-12-14T07:03:58;4.10;84.60
74364;DHT22;62797;49.740;10.154;2023-12-14T07:06:24;4.00;84.60
74364;DHT22;62797;49.740;10.154;2023-12-14T07:08:49;4.10;84.70
74364;DHT22;62797;49.740;10.154;2023-12-14T07:11:16;4.10;84.80
74364;DHT22;62797;49.740;10.154;2023-12-14T07:13:42;4.10;85.00
74364;DHT22;62797;49.740;10.154;2023-12-14T07:16:10;4.20;85.40
74364;DHT22;62797;49.740;10.154;2023-12-14T07:18:40;4.30;85.20
74364;DHT22;62797;49.740;10.154;2023-12-14T07:21:06;4.40;85.20
74364;DHT22;62797;49.740;10.154;2023-12-14T07:23:33;4.40;84.70
74364;DHT22;62797;49.740;10.154;2023-12-14T07:25:58;4.30;84.40
74364;DHT22;62797;49.740;10.154;2023-12-14T07:28:24;4.30;84.30
74364;DHT22;62797;49.740;10.154;2023-12-14T07:30:50;4.30;84.70
74364;DHT22;62797;49.740;10.154;2023-12-14T07:33:19;4.30;85.00
74364;DHT22;62797;49.740;10.154;2023-12-14T07:35:44;4.40;85.20
74364;DHT22;62797;49.740;10.154;2023-12-14T07:38:11;4.50;85.00
74364;DHT22;62797;49.740;10.154;2023-12-14T07:40:36;4.40;84.70
74364;DHT22;62797;49.740;10.154;2023-12-14T07:43:04;4.50;85.20
74364;DHT22;62797;49.740;10.154;2023-12-14T07:45:30;4.50;84.80
74364;DHT22;62797;49.740;10.154;2023-12-14T07:47:55;4.50;84.60
74364;DHT22;62797;49.740;10.154;2023-12-14T07:50:21;4.50;85.00
74364;DHT22;62797;49.740;10.154;2023-12-14T07:52:46;4.60;85.30
74364;DHT22;62797;49.740;10.154;2023-12-14T07:55:12;4.70;85.40
74364;DHT22;62797;49.740;10.154;2023-12-14T07:57:41;4.80;85.50
74364;DHT22;62797;49.740;10.154;2023-12-14T08:00:07;4.90;85.50
74364;DHT22;62797;49.740;10.154;2023-12-14T08:02:34;4.80;85.20
74364;DHT22;62797;49.740;10.154;2023-12-14T08:05:04;4.90;85.50
74364;DHT22;62797;49.740;10.154;2023-12-14T08:07:31;5.00;85.20
74364;DHT22;62797;49.740;10.154;2023-12-14T08:09:57;5.00;85.20
74364;DHT22;62797;49.740;10.154;2023-12-14T08:12:23;5.10;84.80
74364;DHT22;62797;49.740;10.154;2023-12-14T08:14:50;5.10;84.70
74364;DHT22;62797;49.740;10.154;2023-12-14T08:17:15;5.20;85.10
74364;DHT22;62797;49.740;10.154;2023-12-14T08:19:42;5.20;85.10
74364;DHT22;62797;49.740;10.154;2023-12-14T08:22:08;5.30;85.30
74364;DHT22;62797;49.740;10.154;2023-12-14T08:24:36;5.30;85.30
74364;DHT22;62797;49.740;10.154;2023-12-14T08:27:02;5.40;85.00
74364;DHT22;62797;49.740;10.154;2023-12-14T08:29:28;5.50;84.90
74364;DHT22;62797;49.740;10.154;2023-12-14T08:31:54;5.50;84.80
74364;DHT22;62797;49.740;10.154;2023-12-14T08:34:23;5.50;84.70
74364;DHT22;62797;49.740;10.154;2023-12-14T08:36:49;5.50;84.40
74364;DHT22;62797;49.740;10.154;2023-12-14T08:39:14;5.50;84.90
74364;DHT22;62797;49.740;10.154;2023-12-14T08:41:43;5.50;84.60
74364;DHT22;62797;49.740;10.154;2023-12-14T08:44:12;5.60;84.80
74364;DHT22;62797;49.740;10.154;2023-12-14T08:46:43;5.70;85.50
74364;DHT22;62797;49.740;10.154;2023-12-14T08:49:17;5.70;85.30
74364;DHT22;62797;49.740;10.154;2023-12-14T08:51:45;5.90;85.60
74364;DHT22;62797;49.740;10.154;2023-12-14T08:54:11;5.90;84.70
74364;DHT22;62797;49.740;10.154;2023-12-14T08:56:36;5.90;84.10
74364;DHT22;62797;49.740;10.154;2023-12-14T08:59:02;6.00;84.50
74364;DHT22;62797;49.740;10.154;2023-12-14T09:01:29;6.00;85.00
74364;DHT22;62797;49.740;10.154;2023-12-14T09:03:55;6.20;85.60
74364;DHT22;62797;49.740;10.154;2023-12-14T09:09:00;6.40;85.70
74364;DHT22;62797;49.740;10.154;2023-12-14T09:11:26;6.50;85.60
74364;DHT22;62797;49.740;10.154;2023-12-14T09:13:51;6.50;84.60
74364;DHT22;62797;49.740;10.154;2023-12-14T09:16:17;6.50;83.80
74364;DHT22;62797;49.740;10.154;2023-12-14T09:18:43;6.50;83.80
74364;DHT22;62797;49.740;10.154;2023-12-14T09:21:08;6.50;84.60
74364;DHT22;62797;49.740;10.154;2023-12-14T09:23:34;6.60;84.80
74364;DHT22;62797;49.740;10.154;2023-12-14T09:26:02;6.70;85.10
74364;DHT22;62797;49.740;10.154;2023-12-14T09:28:28;6.70;85.10
74364;DHT22;62797;49.740;10.154;2023-12-14T09:30:54;6.70;84.70
74364;DHT22;62797;49.740;10.154;2023-12-14T09:33:19;6.70;84.70
74364;DHT22;62797;49.740;10.154;2023-12-14T09:35:45;6.80;84.60
74364;DHT22;62797;49.740;10.154;2023-12-14T09:38:11;6.70;83.50
74364;DHT22;62797;49.740;10.154;2023-12-14T09:40:39;6.70;83.80
74364;DHT22;62797;49.740;10.154;2023-12-14T09:43:05;6.80;83.50
74364;DHT22;62797;49.740;10.154;2023-12-14T09:45:31;6.80;83.80
74364;DHT22;62797;49.740;10.154;2023-12-14T09:48:00;6.90;84.30
74364;DHT22;62797;49.740;10.154;2023-12-14T09:50:26;7.00;84.60
74364;DHT22;62797;49.740;10.154;2023-12-14T09:52:54;7.00;84.60
74364;DHT22;62797;49.740;10.154;2023-12-14T09:55:20;7.00;84.70
74364;DHT22;62797;49.740;10.154;2023-12-14T09:57:45;7.10;84.20
74364;DHT22;62797;49.740;10.154;2023-12-14T10:00:12;7.10;83.70
74364;DHT22;62797;49.740;10.154;2023-12-14T10:02:39;7.10;83.60
74364;DHT22;62797;49.740;10.154;2023-12-14T10:05:09;7.00;82.90
74364;DHT22;62797;49.740;10.154;2023-12-14T10:07:41;7.00;82.70
74364;DHT22;62797;49.740;10.154;2023-12-14T10:10:13;7.00;83.30
74364;DHT22;62797;49.740;10.154;2023-12-14T10:12:51;7.10;83.10
74364;DHT22;62797;49.740;10.154;2023-12-14T10:15:18;7.10;82.00
74364;DHT22;62797;49.740;10.154;2023-12-14T10:17:43;7.10;82.60
74364;DHT22;62797;49.740;10.154;2023-12-14T10:20:11;7.20;83.10
74364;DHT22;62797;49.740;10.154;2023-12-14T10:22:40;7.30;83.40
74364;DHT22;62797;49.740;10.154;2023-12-14T10:25:07;7.30;83.60
74364;DHT22;62797;49.740;10.154;2023-12-14T10:27:37;7.30;83.40
74364;DHT22;62797;49.740;10.154;2023-12-14T10:30:06;7.30;82.70
74364;DHT22;62797;49.740;10.154;2023-12-14T10:32:33;7.30;82.70
74364;DHT22;62797;49.740;10.154;2023-12-14T10:34:59;7.30;81.10
74364;DHT22;62797;49.740;10.154;2023-12-14T10:37:27;7.30;82.30
74364;DHT22;62797;49.740;10.154;2023-12-14T10:39:54;7.30;82.00
74364;DHT22;62797;49.740;10.154;2023-12-14T10:42:21;7.30;81.40
74364;DHT22;62797;49.740;10.154;2023-12-14T10:44:52;7.30;82.20
74364;DHT22;62797;49.740;10.154;2023-12-14T10:47:19;7.30;81.40
74364;DHT22;62797;49.740;10.154;2023-12-14T10:49:50;7.30;81.60
74364;DHT22;62797;49.740;10.154;2023-12-14T10:52:17;7.30;81.10
74364;DHT22;62797;49.740;10.154;2023-12-14T10:54:44;7.30;81.50
74364;DHT22;62797;49.740;10.154;2023-12-14T10:57:11;7.30;81.80
74364;DHT22;62797;49.740;10.154;2023-12-14T10:59:37;7.20;81.80
74364;DHT22;62797;49.740;10.154;2023-12-14T11:02:12;7.30;81.90
74364;DHT22;62797;49.740;10.154;2023-12-14T11:04:57;7.20;80.90
74364;DHT22;62797;49.740;10.154;2023-12-14T11:07:43;7.20;81.40
74364;DHT22;62797;49.740;10.154;2023-12-14T11:10:11;7.30;82.20
74364;DHT22;62797;49.740;10.154;2023-12-14T11:12:38;7.30;81.70
74364;DHT22;62797;49.740;10.154;2023-12-14T11:15:10;7.30;81.20
74364;DHT22;62797;49.740;10.154;2023-12-14T11:17:36;7.30;80.60
74364;DHT22;62797;49.740;10.154;2023-12-14T11:20:23;7.20;80.80
74364;DHT22;62797;49.740;10.154;2023-12-14T11:22:49;7.20;80.50
74364;DHT22;62797;49.740;10.154;2023-12-14T11:25:14;7.20;80.20
74364;DHT22;62797;49.740;10.154;2023-12-14T11:27:43;7.20;80.50
74364;DHT22;62797;49.740;10.154;2023-12-14T11:30:12;7.20;79.70
74364;DHT22;62797;49.740;10.154;2023-12-14T11:32:38;7.20;81.30
74364;DHT22;62797;49.740;10.154;2023-12-14T11:35:14;7.20;81.40
74364;DHT22;62797;49.740;10.154;2023-12-14T11:37:48;7.20;80.00
74364;DHT22;62797;49.740;10.154;2023-12-14T11:40:16;7.20;80.40
74364;DHT22;62797;49.740;10.154;2023-12-14T11:43:00;7.10;80.40
74364;DHT22;62797;49.740;10.154;2023-12-14T11:45:26;7.20;81.30
74364;DHT22;62797;49.740;10.154;2023-12-14T11:47:52;7.10;80.90
74364;DHT22;62797;49.740;10.154;2023-12-14T11:50:18;7.10;80.40
74364;DHT22;62797;49.740;10.154;2023-12-14T11:52:44;7.10;80.30
74364;DHT22;62797;49.740;10.154;2023-12-14T11:55:10;7.10;80.40
74364;DHT22;62797;49.740;10.154;2023-12-14T11:57:36;7.10;81.70
74364;DHT22;62797;49.740;10.154;2023-12-14T12:00:02;7.20;81.50
74364;DHT22;62797;49.740;10.154;2023-12-14T12:02:30;7.10;81.90
74364;DHT22;62797;49.740;10.154;2023-12-14T12:04:56;7.10;81.80
74364;DHT22;62797;49.740;10.154;2023-12-14T12:07:22;7.10;81.90
74364;DHT22;62797;49.740;10.154;2023-12-14T12:09:48;7.00;81.80
74364;DHT22;62797;49.740;10.154;2023-12-14T12:12:13;7.00;82.20
74364;DHT22;62797;49.740;10.154;2023-12-14T12:14:40;7.00;81.80
74364;DHT22;62797;49.740;10.154;2023-12-14T12:17:06;7.00;81.90
74364;DHT22;62797;49.740;10.154;2023-12-14T12:19:35;6.90;82.20
74364;DHT22;62797;49.740;10.154;2023-12-14T12:22:02;6.90;82.00
74364;DHT22;62797;49.740;10.154;2023-12-14T12:24:27;6.90;82.90
74364;DHT22;62797;49.740;10.154;2023-12-14T12:26:54;6.90;82.70
74364;DHT22;62797;49.740;10.154;2023-12-14T12:29:22;6.90;83.00
74364;DHT22;62797;49.740;10.154;2023-12-14T12:31:48;6.80;82.70
74364;DHT22;62797;49.740;10.154;2023-12-14T12:34:14;6.80;83.50
74364;DHT22;62797;49.740;10.154;2023-12-14T12:36:39;6.70;83.70
74364;DHT22;62797;49.740;10.154;2023-12-14T12:39:05;6.70;84.20
74364;DHT22;62797;49.740;10.154;2023-12-14T12:41:35;6.70;84.90
74364;DHT22;62797;49.740;10.154;2023-12-14T12:44:03;6.80;84.80
74364;DHT22;62797;49.740;10.154;2023-12-14T12:46:36;6.70;84.90
74364;DHT22;62797;49.740;10.154;2023-12-14T12:49:04;6.80;84.80
74364;DHT22;62797;49.740;10.154;2023-12-14T12:51:31;6.80;85.00
74364;DHT22;62797;49.740;10.154;2023-12-14T12:53:58;6.80;85.00
74364;DHT22;62797;49.740;10.154;2023-12-14T12:56:26;6.80;84.60
74364;DHT22;62797;49.740;10.154;2023-12-14T12:58:52;6.80;84.20
74364;DHT22;62797;49.740;10.154;2023-12-14T13:01:22;6.80;84.20
74364;DHT22;62797;49.740;10.154;2023-12-14T13:03:54;6.80;84.10
74364;DHT22;62797;49.740;10.154;2023-12-14T13:06:25;6.80;83.70
74364;DHT22;62797;49.740;10.154;2023-12-14T13:08:51;6.80;83.50
74364;DHT22;62797;49.740;10.154;2023-12-14T13:11:17;6.70;83.10
74364;DHT22;62797;49.740;10.154;2023-12-14T13:13:43;6.80;83.30
74364;DHT22;62797;49.740;10.154;2023-12-14T13:16:10;6.80;83.40
74364;DHT22;62797;49.740;10.154;2023-12-14T13:18:36;6.70;83.20
74364;DHT22;62797;49.740;10.154;2023-12-14T13:21:02;6.70;83.90
74364;DHT22;62797;49.740;10.154;2023-12-14T13:23:28;6.70;82.60
74364;DHT22;62797;49.740;10.154;2023-12-14T13:25:54;6.70;82.20
74364;DHT22;62797;49.740;10.154;2023-12-14T13:28:19;6.70;82.70
74364;DHT22;62797;49.740;10.154;2023-12-14T13:30:45;6.70;82.70
74364;DHT22;62797;49.740;10.154;2023-12-14T13:33:11;6.70;83.50
74364;DHT22;62797;49.740;10.154;2023-12-14T13:35:37;6.80;82.50
74364;DHT22;62797;49.740;10.154;2023-12-14T13:38:03;6.80;83.10
74364;DHT22;62797;49.740;10.154;2023-12-14T13:40:29;6.80;83.20
74364;DHT22;62797;49.740;10.154;2023-12-14T13:42:55;6.80;83.20
74364;DHT22;62797;49.740;10.154;2023-12-14T13:45:25;6.80;83.50
74364;DHT22;62797;49.740;10.154;2023-12-14T13:47:51;6.80;83.10
74364;DHT22;62797;49.740;10.154;2023-12-14T13:50:17;6.80;83.10
74364;DHT22;62797;49.740;10.154;2023-12-14T13:52:43;6.80;82.10
74364;DHT22;62797;49.740;10.154;2023-12-14T13:55:09;6.80;82.20
74364;DHT22;62797;49.740;10.154;2023-12-14T13:57:34;6.80;82.70
74364;DHT22;62797;49.740;10.154;2023-12-14T14:00:00;6.90;82.30
74364;DHT22;62797;49.740;10.154;2023-12-14T14:02:26;6.80;81.60
74364;DHT22;62797;49.740;10.154;2023-12-14T14:04:54;6.80;81.50
74364;DHT22;62797;49.740;10.154;2023-12-14T14:07:19;6.80;81.50
74364;DHT22;62797;49.740;10.154;2023-12-14T14:09:45;6.80;81.80
74364;DHT22;62797;49.740;10.154;2023-12-14T14:12:11;6.80;82.20
74364;DHT22;62797;49.740;10.154;2023-12-14T14:14:36;6.80;81.10
74364;DHT22;62797;49.740;10.154;2023-12-14T14:17:02;6.80;81.90
74364;DHT22;62797;49.740;10.154;2023-12-14T14:19:28;6.70;80.70
74364;DHT22;62797;49.740;10.154;2023-12-14T14:21:54;6.70;81.30
74364;DHT22;62797;49.740;10.154;2023-12-14T14:24:20;6.80;81.90
74364;DHT22;62797;49.740;10.154;2023-12-14T14:26:46;6.80;81.10
74364;DHT22;62797;49.740;10.154;2023-12-14T14:29:11;6.80;80.90
74364;DHT22;62797;49.740;10.154;2023-12-14T14:31:37;6.70;80.30
74364;DHT22;62797;49.740;10.154;2023-12-14T14:34:03;6.70;80.60
74364;DHT22;62797;49.740;10.154;2023-12-14T14:36:31;6.70;79.80
74364;DHT22;62797;49.740;10.154;2023-12-14T14:38:57;6.60;79.90
74364;DHT22;62797;49.740;10.154;2023-12-14T14:41:23;6.60;81.20
74364;DHT22;62797;49.740;10.154;2023-12-14T14:43:49;6.60;81.30
74364;DHT22;62797;49.740;10.154;2023-12-14T14:46:15;6.70;80.50
74364;DHT22;62797;49.740;10.154;2023-12-14T14:48:40;6.70;81.20
74364;DHT22;62797;49.740;10.154;2023-12-14T14:51:07;6.60;81.40
74364;DHT22;62797;49.740;10.154;2023-12-14T14:53:33;6.60;81.90
74364;DHT22;62797;49.740;10.154;2023-12-14T14:55:58;6.60;81.40
74364;DHT22;62797;49.740;10.154;2023-12-14T14:58:24;6.60;81.50
74364;DHT22;62797;49.740;10.154;2023-12-14T15:00:49;6.60;82.20
74364;DHT22;62797;49.740;10.154;2023-12-14T15:03:15;6.60;82.40
74364;DHT22;62797;49.740;10.154;2023-12-14T15:05:41;6.60;82.00
74364;DHT22;62797;49.740;10.154;2023-12-14T15:08:07;6.60;82.30
74364;DHT22;62797;49.740;10.154;2023-12-14T15:10:33;6.60;82.30
74364;DHT22;62797;49.740;10.154;2023-12-14T15:12:59;6.60;81.90
74364;DHT22;62797;49.740;10.154;2023-12-14T15:15:24;6.60;81.60
74364;DHT22;62797;49.740;10.154;2023-12-14T15:17:50;6.60;81.60
74364;DHT22;62797;49.740;10.154;2023-12-14T15:20:15;6.60;81.10
74364;DHT22;62797;49.740;10.154;2023-12-14T15:22:41;6.60;81.60
74364;DHT22;62797;49.740;10.154;2023-12-14T15:25:07;6.60;81.40
74364;DHT22;62797;49.740;10.154;2023-12-14T15:27:33;6.70;82.30